Time;durP1;ratioP1;P1;durP2;ratioP2;P2;SDS_P1;SDS_P2;PMS_P1;PMS_P2;Temp;Humidity;BMP_temperature;BMP_pressure;BME280_temperature;BME280_humidity;BME280_pressure;Samples;Min_cycle;Max_cycle;Signal;HPM_P1;HPM_P2
2023/09/15 00:01:23;;;;;;;57.20;2.90;;;;;;;;;;4952978;28;20480;-74
2023/09/15 00:03:52;;;;;;;57.30;2.27;;;;;;;;;;4952822;28;20448;-72
2023/09/15 00:06:19;;;;;;;57.40;2.73;;;;;;;;;;4952718;28;20555;-73
2023/09/15 00:08:47;;;;;;;56.80;2.30;;;;;;;;;;4953150;28;20460;-72
2023/09/15 00:11:17;;;;;;;57.30;2.60;;;;;;;;;;4952702;28;20453;-73
2023/09/15 00:13:45;;;;;;;56.87;2.57;;;;;;;;;;4952628;28;20449;-72
2023/09/15 00:16:43;;;;;;;57.13;3.00;;;;;;;;;;4951380;28;20477;-72
2023/09/15 00:19:13;;;;;;;57.00;2.80;;;;;;;;;;4947083;28;20472;-73
2023/09/15 00:21:41;;;;;;;56.90;2.80;;;;;;;;;;4941014;29;20498;-74
2023/09/15 00:24:08;;;;;;;57.30;2.90;;;;;;;;;;4933593;29;20980;-73
2023/09/15 00:26:35;;;;;;;57.17;3.10;;;;;;;;;;4932415;29;20461;-74
2023/09/15 00:29:04;;;;;;;57.07;3.20;;;;;;;;;;4932604;29;20441;-74
2023/09/15 00:31:31;;;;;;;56.80;2.77;;;;;;;;;;4932002;29;20548;-73
2023/09/15 00:33:58;;;;;;;56.67;2.50;;;;;;;;;;4931977;29;20901;-74
2023/09/15 00:36:27;;;;;;;58.90;2.90;;;;;;;;;;4932761;29;20466;-73
2023/09/15 00:38:55;;;;;;;56.77;2.47;;;;;;;;;;4942268;29;20480;-73
2023/09/15 00:41:22;;;;;;;57.30;2.80;;;;;;;;;;4952070;28;20499;-73
2023/09/15 00:43:49;;;;;;;58.03;3.47;;;;;;;;;;4951208;28;20536;-73
2023/09/15 00:46:16;;;;;;;56.80;2.87;;;;;;;;;;4952240;28;20569;-73
2023/09/15 00:48:45;;;;;;;57.20;2.97;;;;;;;;;;4951545;28;20961;-71
2023/09/15 00:51:12;;;;;;;57.10;2.50;;;;;;;;;;4951293;28;20453;-73
2023/09/15 00:53:41;;;;;;;57.67;4.17;;;;;;;;;;4953413;28;20463;-73
2023/09/15 00:56:09;;;;;;;57.50;3.03;;;;;;;;;;4936146;29;20457;-72
2023/09/15 00:58:39;;;;;;;57.23;2.73;;;;;;;;;;4935573;29;21017;-73
2023/09/15 01:01:08;;;;;;;56.63;2.40;;;;;;;;;;4936007;29;20493;-74
2023/09/15 01:06:17;;;;;;;56.90;2.63;;;;;;;;;;4906251;29;20486;-71
2023/09/15 01:08:46;;;;;;;56.87;2.33;;;;;;;;;;4906787;29;20452;-72
2023/09/15 01:11:13;;;;;;;56.83;2.50;;;;;;;;;;4902933;29;20452;-72
2023/09/15 01:13:41;;;;;;;57.90;3.00;;;;;;;;;;4911115;29;20459;-73
2023/09/15 01:16:10;;;;;;;57.07;2.70;;;;;;;;;;4905636;29;21214;-71
2023/09/15 01:18:42;;;;;;;56.67;2.40;;;;;;;;;;4905747;29;20477;-73
2023/09/15 01:21:20;;;;;;;56.67;2.50;;;;;;;;;;4903130;29;20914;-73
2023/09/15 01:24:03;;;;;;;57.33;3.00;;;;;;;;;;4911587;29;20457;-73
2023/09/15 01:26:40;;;;;;;56.77;2.70;;;;;;;;;;4901724;29;21340;-72
2023/09/15 01:29:18;;;;;;;56.87;2.70;;;;;;;;;;4903781;29;20457;-73
2023/09/15 01:31:48;;;;;;;57.37;2.87;;;;;;;;;;4902406;29;20485;-72
2023/09/15 01:34:16;;;;;;;56.73;2.60;;;;;;;;;;4910303;29;20458;-73
2023/09/15 01:36:44;;;;;;;56.97;3.10;;;;;;;;;;4923234;29;20509;-72
2023/09/15 01:39:12;;;;;;;57.17;2.90;;;;;;;;;;4935198;29;20461;-73
2023/09/15 01:41:39;;;;;;;57.70;3.47;;;;;;;;;;4950618;29;20494;-71
2023/09/15 01:44:06;;;;;;;57.10;2.83;;;;;;;;;;4954849;28;20514;-73
2023/09/15 01:46:33;;;;;;;56.97;2.90;;;;;;;;;;4954031;28;20469;-73
2023/09/15 01:49:02;;;;;;;57.10;2.80;;;;;;;;;;4946626;28;20465;-73
2023/09/15 01:51:30;;;;;;;57.10;2.83;;;;;;;;;;4954948;28;20452;-72
2023/09/15 01:53:57;;;;;;;56.70;2.77;;;;;;;;;;4946632;28;20467;-73
2023/09/15 01:56:28;;;;;;;57.20;3.30;;;;;;;;;;4953300;28;20480;-72
2023/09/15 01:58:55;;;;;;;57.10;2.90;;;;;;;;;;4953376;28;20516;-73
2023/09/15 02:01:22;;;;;;;57.00;2.70;;;;;;;;;;4936399;29;20492;-73
2023/09/15 02:03:49;;;;;;;56.87;2.67;;;;;;;;;;4954290;28;20453;-73
2023/09/15 02:06:18;;;;;;;57.50;3.40;;;;;;;;;;4946029;28;20478;-73
2023/09/15 02:08:45;;;;;;;57.67;3.33;;;;;;;;;;4938602;28;20453;-73
2023/09/15 02:11:12;;;;;;;56.97;2.40;;;;;;;;;;4947059;29;20448;-73
2023/09/15 02:13:39;;;;;;;56.70;2.37;;;;;;;;;;4954110;28;20449;-72
2023/09/15 02:16:07;;;;;;;56.97;2.90;;;;;;;;;;4954596;28;20449;-72
2023/09/15 02:18:34;;;;;;;56.87;2.90;;;;;;;;;;4954462;28;20869;-73
2023/09/15 02:21:01;;;;;;;57.30;2.80;;;;;;;;;;4954435;28;20503;-72
2023/09/15 02:23:29;;;;;;;57.10;3.33;;;;;;;;;;4954616;28;20448;-73
2023/09/15 02:25:56;;;;;;;56.93;2.70;;;;;;;;;;4954508;28;20452;-72
2023/09/15 02:28:24;;;;;;;57.07;2.80;;;;;;;;;;4954391;28;20445;-72
2023/09/15 02:30:51;;;;;;;56.73;2.90;;;;;;;;;;4953842;28;20496;-72
2023/09/15 02:33:19;;;;;;;56.70;2.60;;;;;;;;;;4954446;28;20445;-73
2023/09/15 02:35:47;;;;;;;56.90;2.73;;;;;;;;;;4953994;28;20527;-71
2023/09/15 02:38:14;;;;;;;58.77;3.53;;;;;;;;;;4953545;28;20499;-72
2023/09/15 02:40:43;;;;;;;56.77;2.67;;;;;;;;;;4954024;28;20492;-72
2023/09/15 02:43:10;;;;;;;56.70;2.43;;;;;;;;;;4954363;28;20449;-71
2023/09/15 02:45:37;;;;;;;56.80;2.50;;;;;;;;;;4950901;28;20460;-72
2023/09/15 02:48:04;;;;;;;57.60;2.93;;;;;;;;;;4951690;28;20477;-73
2023/09/15 02:50:32;;;;;;;57.27;2.77;;;;;;;;;;4935814;29;20450;-72
2023/09/15 02:52:59;;;;;;;57.17;2.77;;;;;;;;;;4942611;29;20524;-72
2023/09/15 02:55:26;;;;;;;57.40;3.20;;;;;;;;;;4942762;29;20457;-73
2023/09/15 02:57:55;;;;;;;56.90;2.70;;;;;;;;;;4934038;29;20537;-72
2023/09/15 03:00:22;;;;;;;57.13;3.00;;;;;;;;;;4942482;29;20453;-72
2023/09/15 03:02:49;;;;;;;56.87;2.50;;;;;;;;;;4933528;29;20458;-72
2023/09/15 03:05:17;;;;;;;57.27;3.10;;;;;;;;;;4934967;29;20833;-73
2023/09/15 03:07:44;;;;;;;57.00;2.50;;;;;;;;;;4934402;29;20477;-75
2023/09/15 03:10:11;;;;;;;57.40;3.20;;;;;;;;;;4933698;29;20450;-72
2023/09/15 03:12:38;;;;;;;61.30;3.70;;;;;;;;;;4934409;29;20453;-72
2023/09/15 03:15:08;;;;;;;57.13;3.17;;;;;;;;;;4934191;29;21006;-72
2023/09/15 03:17:36;;;;;;;57.10;3.27;;;;;;;;;;4934003;29;20469;-72
2023/09/15 03:20:12;;;;;;;57.00;3.67;;;;;;;;;;4934660;29;20457;-72
2023/09/15 03:22:40;;;;;;;56.57;2.40;;;;;;;;;;4948980;29;20515;-73
2023/09/15 03:25:07;;;;;;;57.77;3.60;;;;;;;;;;4953443;28;20456;-72
2023/09/15 03:27:34;;;;;;;56.77;2.90;;;;;;;;;;4953124;28;20964;-71
2023/09/15 03:30:02;;;;;;;56.57;2.60;;;;;;;;;;4953642;28;20457;-73
2023/09/15 03:32:30;;;;;;;56.80;2.60;;;;;;;;;;4953475;28;20476;-71
2023/09/15 03:34:57;;;;;;;56.77;2.30;;;;;;;;;;4953393;28;20449;-73
2023/09/15 03:37:25;;;;;;;57.07;2.73;;;;;;;;;;4952976;28;20475;-73
2023/09/15 03:39:52;;;;;;;57.40;3.00;;;;;;;;;;4953418;28;20471;-73
2023/09/15 03:42:19;;;;;;;57.17;3.10;;;;;;;;;;4953151;28;21024;-73
2023/09/15 03:44:47;;;;;;;57.07;3.43;;;;;;;;;;4953284;28;20806;-73
2023/09/15 03:47:14;;;;;;;56.77;2.60;;;;;;;;;;4952745;28;20468;-71
2023/09/15 03:49:43;;;;;;;58.47;4.10;;;;;;;;;;4953270;28;20471;-72
2023/09/15 03:52:10;;;;;;;57.63;3.37;;;;;;;;;;4952973;28;20449;-72
2023/09/15 03:54:38;;;;;;;56.80;2.67;;;;;;;;;;4953032;28;20449;-70
2023/09/15 03:57:06;;;;;;;57.50;3.20;;;;;;;;;;4952397;28;20476;-70
2023/09/15 03:59:34;;;;;;;57.20;2.60;;;;;;;;;;4952993;28;20457;-72
2023/09/15 04:02:03;;;;;;;57.20;3.50;;;;;;;;;;4952947;28;20579;-71
2023/09/15 04:04:30;;;;;;;57.73;2.70;;;;;;;;;;4952997;28;20528;-72
2023/09/15 04:06:59;;;;;;;56.87;2.60;;;;;;;;;;4952401;28;20499;-71
2023/09/15 04:09:26;;;;;;;57.30;2.60;;;;;;;;;;4953067;28;20461;-73
2023/09/15 04:11:53;;;;;;;57.10;2.90;;;;;;;;;;4953138;28;20452;-71
2023/09/15 04:14:20;;;;;;;56.50;2.70;;;;;;;;;;4952932;28;20447;-72
2023/09/15 04:16:47;;;;;;;57.30;3.07;;;;;;;;;;4952645;28;20473;-71
2023/09/15 04:19:15;;;;;;;56.93;2.60;;;;;;;;;;4952654;28;20906;-73
2023/09/15 04:21:42;;;;;;;57.23;2.77;;;;;;;;;;4952620;28;20520;-72
2023/09/15 04:24:11;;;;;;;56.70;2.40;;;;;;;;;;4952694;28;20556;-72
2023/09/15 04:26:39;;;;;;;57.83;2.63;;;;;;;;;;4952590;28;20572;-72
2023/09/15 04:29:06;;;;;;;57.57;2.80;;;;;;;;;;4955796;28;20452;-71
2023/09/15 04:31:37;;;;;;;57.20;2.40;;;;;;;;;;4956796;28;20449;-72
2023/09/15 04:34:04;;;;;;;56.90;2.60;;;;;;;;;;4956654;28;20448;-71
2023/09/15 04:36:31;;;;;;;59.20;2.80;;;;;;;;;;4955973;28;20555;-73
2023/09/15 04:38:59;;;;;;;56.97;2.60;;;;;;;;;;4956209;28;20562;-72
2023/09/15 04:41:27;;;;;;;56.80;2.50;;;;;;;;;;4956611;28;20488;-72
2023/09/15 04:43:56;;;;;;;58.07;2.47;;;;;;;;;;4956653;28;20460;-72
2023/09/15 04:46:24;;;;;;;56.57;2.40;;;;;;;;;;4956294;28;20468;-68
2023/09/15 04:48:51;;;;;;;56.73;2.80;;;;;;;;;;4956284;28;20464;-72
2023/09/15 04:51:18;;;;;;;56.77;2.50;;;;;;;;;;4956340;28;20445;-72
2023/09/15 04:53:46;;;;;;;56.60;2.40;;;;;;;;;;4956507;28;20453;-72
2023/09/15 04:56:13;;;;;;;57.43;3.47;;;;;;;;;;4956263;28;20532;-71
2023/09/15 04:58:44;;;;;;;56.57;2.30;;;;;;;;;;4956198;28;20456;-72
2023/09/15 05:01:15;;;;;;;57.10;2.50;;;;;;;;;;4956168;28;20452;-72
2023/09/15 05:03:43;;;;;;;57.30;3.20;;;;;;;;;;4956223;28;20460;-72
2023/09/15 05:06:10;;;;;;;58.57;2.80;;;;;;;;;;4956000;28;20976;-72
2023/09/15 05:08:37;;;;;;;56.70;2.40;;;;;;;;;;4955915;28;20929;-72
2023/09/15 05:11:05;;;;;;;56.77;2.60;;;;;;;;;;4955874;28;20833;-72
2023/09/15 05:13:32;;;;;;;56.90;2.90;;;;;;;;;;4956048;28;20445;-72
2023/09/15 05:16:02;;;;;;;56.87;2.70;;;;;;;;;;4953878;28;20836;-71
2023/09/15 05:18:30;;;;;;;56.90;2.50;;;;;;;;;;4943502;28;20462;-72
2023/09/15 05:20:57;;;;;;;57.90;3.57;;;;;;;;;;4937705;29;20473;-71
2023/09/15 05:23:24;;;;;;;56.83;2.80;;;;;;;;;;4951961;28;20503;-72
2023/09/15 05:25:53;;;;;;;57.40;3.23;;;;;;;;;;4951833;29;20842;-70
2023/09/15 05:28:20;;;;;;;57.30;2.90;;;;;;;;;;4944282;28;20516;-72
2023/09/15 05:30:47;;;;;;;57.20;2.80;;;;;;;;;;4936718;29;20449;-72
2023/09/15 05:33:17;;;;;;;57.70;2.90;;;;;;;;;;4936761;29;20452;-72
2023/09/15 05:35:44;;;;;;;56.90;2.80;;;;;;;;;;4936478;29;20461;-72
2023/09/15 05:38:11;;;;;;;56.73;2.40;;;;;;;;;;4937962;28;21019;-71
2023/09/15 05:40:38;;;;;;;56.80;2.37;;;;;;;;;;4955497;28;20457;-73
2023/09/15 05:43:05;;;;;;;56.27;2.10;;;;;;;;;;4955291;28;20496;-71
2023/09/15 05:45:32;;;;;;;56.90;2.63;;;;;;;;;;4955390;28;20457;-72
2023/09/15 05:47:59;;;;;;;56.67;2.40;;;;;;;;;;4955127;28;20592;-71
2023/09/15 05:50:28;;;;;;;56.57;2.40;;;;;;;;;;4955392;28;20456;-71
2023/09/15 05:52:55;;;;;;;57.00;2.53;;;;;;;;;;4955314;28;20445;-72
2023/09/15 05:55:22;;;;;;;56.80;2.60;;;;;;;;;;4955286;28;20452;-72
2023/09/15 05:57:49;;;;;;;58.70;3.00;;;;;;;;;;4954919;28;21216;-72
2023/09/15 06:00:16;;;;;;;56.97;2.87;;;;;;;;;;4955326;28;20453;-72
2023/09/15 06:02:43;;;;;;;56.47;2.30;;;;;;;;;;4954981;28;21016;-71
2023/09/15 06:05:11;;;;;;;57.50;3.43;;;;;;;;;;4955095;28;20456;-72
2023/09/15 06:07:39;;;;;;;57.00;2.50;;;;;;;;;;4954774;28;20483;-72
2023/09/15 06:10:07;;;;;;;58.07;2.47;;;;;;;;;;4954946;28;20453;-72
2023/09/15 06:12:34;;;;;;;56.63;2.70;;;;;;;;;;4955258;28;20453;-71
2023/09/15 06:15:01;;;;;;;56.63;2.40;;;;;;;;;;4954828;28;20453;-71
2023/09/15 06:17:28;;;;;;;58.70;3.53;;;;;;;;;;4953441;28;20511;-72
2023/09/15 06:19:55;;;;;;;56.90;3.10;;;;;;;;;;4952314;28;20445;-71
2023/09/15 06:22:23;;;;;;;56.87;2.60;;;;;;;;;;4943458;28;20500;-72
2023/09/15 06:24:51;;;;;;;56.63;2.53;;;;;;;;;;4935498;29;20457;-72
2023/09/15 06:27:18;;;;;;;56.67;2.60;;;;;;;;;;4935298;29;20478;-72
2023/09/15 06:29:45;;;;;;;57.87;4.10;;;;;;;;;;4940250;29;20551;-72
2023/09/15 06:32:13;;;;;;;56.80;2.60;;;;;;;;;;4948992;28;20449;-73
2023/09/15 06:34:40;;;;;;;56.80;2.60;;;;;;;;;;4935287;29;20457;-73
2023/09/15 06:37:08;;;;;;;56.67;2.90;;;;;;;;;;4935822;29;20474;-73
2023/09/15 06:39:35;;;;;;;56.67;2.60;;;;;;;;;;4949624;28;20462;-73
2023/09/15 06:42:04;;;;;;;56.67;2.70;;;;;;;;;;4935091;29;20525;-73
2023/09/15 06:44:31;;;;;;;57.60;2.60;;;;;;;;;;4935237;29;20461;-72
2023/09/15 06:46:59;;;;;;;56.90;2.70;;;;;;;;;;4934896;29;20473;-70
2023/09/15 06:49:26;;;;;;;56.97;3.13;;;;;;;;;;4946455;29;20452;-71
2023/09/15 06:51:54;;;;;;;56.57;2.50;;;;;;;;;;4953485;28;20480;-71
2023/09/15 06:54:22;;;;;;;56.57;2.60;;;;;;;;;;4954283;28;20799;-71
2023/09/15 06:56:49;;;;;;;56.77;2.73;;;;;;;;;;4953886;28;20889;-68
2023/09/15 06:59:17;;;;;;;56.70;2.53;;;;;;;;;;4954164;28;20449;-70
2023/09/15 07:01:44;;;;;;;56.57;2.30;;;;;;;;;;4953998;28;20817;-71
2023/09/15 07:04:13;;;;;;;56.57;2.90;;;;;;;;;;4953799;28;20449;-71
2023/09/15 07:06:40;;;;;;;56.70;2.50;;;;;;;;;;4953579;28;20938;-72
2023/09/15 07:09:07;;;;;;;57.43;3.57;;;;;;;;;;4953826;28;20810;-69
2023/09/15 07:11:34;;;;;;;58.90;3.87;;;;;;;;;;4953919;28;20951;-71
2023/09/15 07:14:01;;;;;;;57.07;2.83;;;;;;;;;;4953940;28;20442;-71
2023/09/15 07:16:30;;;;;;;57.27;3.23;;;;;;;;;;4953365;28;20465;-71
2023/09/15 07:18:57;;;;;;;56.50;2.67;;;;;;;;;;4953538;28;20941;-68
2023/09/15 07:21:24;;;;;;;57.00;3.10;;;;;;;;;;4953558;28;20449;-69
2023/09/15 07:23:51;;;;;;;57.73;3.07;;;;;;;;;;4953691;28;20864;-69
2023/09/15 07:26:18;;;;;;;56.33;2.47;;;;;;;;;;4953394;28;20472;-70
2023/09/15 07:28:45;;;;;;;57.37;3.30;;;;;;;;;;4953470;28;20817;-70
2023/09/15 07:31:15;;;;;;;56.40;2.30;;;;;;;;;;4953268;28;20549;-71
2023/09/15 07:33:44;;;;;;;57.03;2.93;;;;;;;;;;4953601;28;20510;-71
2023/09/15 07:36:11;;;;;;;57.17;3.13;;;;;;;;;;4953348;28;20511;-71
2023/09/15 07:38:38;;;;;;;57.00;2.93;;;;;;;;;;4953182;28;20469;-71
2023/09/15 07:41:05;;;;;;;56.57;2.37;;;;;;;;;;4953435;28;20472;-69
2023/09/15 07:43:32;;;;;;;57.00;2.87;;;;;;;;;;4953213;28;20480;-71
2023/09/15 07:45:59;;;;;;;56.60;2.40;;;;;;;;;;4952974;28;20938;-69
2023/09/15 07:48:27;;;;;;;57.07;3.27;;;;;;;;;;4953188;28;20445;-71
2023/09/15 07:50:56;;;;;;;56.40;2.50;;;;;;;;;;4953288;28;20968;-70
2023/09/15 07:53:23;;;;;;;57.10;2.70;;;;;;;;;;4953092;28;20461;-71
2023/09/15 07:55:51;;;;;;;56.80;2.20;;;;;;;;;;4953138;28;20556;-71
2023/09/15 07:58:18;;;;;;;56.87;2.67;;;;;;;;;;4952761;28;20981;-69
2023/09/15 08:00:46;;;;;;;57.00;2.47;;;;;;;;;;4953052;28;20456;-71
2023/09/15 08:03:13;;;;;;;56.50;2.60;;;;;;;;;;4953076;28;20587;-71
2023/09/15 08:05:40;;;;;;;56.90;2.83;;;;;;;;;;4953073;28;20829;-70
2023/09/15 08:08:08;;;;;;;57.60;3.13;;;;;;;;;;4952828;28;20473;-71
2023/09/15 08:10:35;;;;;;;56.50;2.60;;;;;;;;;;4952869;28;20455;-71
2023/09/15 08:13:03;;;;;;;56.47;2.53;;;;;;;;;;4952854;28;20459;-71
2023/09/15 08:15:30;;;;;;;57.40;2.83;;;;;;;;;;4952758;28;20453;-71
2023/09/15 08:17:57;;;;;;;56.80;2.47;;;;;;;;;;4944875;28;20480;-71
2023/09/15 08:20:25;;;;;;;58.37;3.37;;;;;;;;;;4952726;28;20484;-71
2023/09/15 08:22:52;;;;;;;57.10;2.70;;;;;;;;;;4952863;28;20500;-71
2023/09/15 08:25:20;;;;;;;56.77;2.67;;;;;;;;;;4952762;28;20967;-70
2023/09/15 08:27:48;;;;;;;57.33;3.83;;;;;;;;;;4946677;28;20469;-71
2023/09/15 08:30:15;;;;;;;56.67;2.20;;;;;;;;;;4948898;29;20464;-71
2023/09/15 08:32:43;;;;;;;56.60;2.37;;;;;;;;;;4938944;29;20803;-71
2023/09/15 08:35:10;;;;;;;57.20;3.00;;;;;;;;;;4951040;28;20949;-71
2023/09/15 08:37:37;;;;;;;57.10;2.57;;;;;;;;;;4933100;29;20477;-71
2023/09/15 08:40:06;;;;;;;56.80;2.60;;;;;;;;;;4933431;29;20468;-71
2023/09/15 08:42:34;;;;;;;56.47;2.60;;;;;;;;;;4933641;29;20493;-70
2023/09/15 08:45:04;;;;;;;57.87;3.40;;;;;;;;;;4948484;29;20471;-71
2023/09/15 08:47:34;;;;;;;56.27;2.40;;;;;;;;;;4936700;29;20592;-72
2023/09/15 08:50:03;;;;;;;58.23;3.20;;;;;;;;;;4945185;28;20468;-71
2023/09/15 08:52:30;;;;;;;58.97;3.67;;;;;;;;;;4944387;29;20448;-71
2023/09/15 08:54:57;;;;;;;56.60;2.40;;;;;;;;;;4952516;28;20452;-72
2023/09/15 08:57:26;;;;;;;57.63;2.67;;;;;;;;;;4952537;28;20491;-71
2023/09/15 08:59:54;;;;;;;57.70;3.00;;;;;;;;;;4952485;28;20448;-71
2023/09/15 09:02:22;;;;;;;57.47;3.13;;;;;;;;;;4952542;28;20445;-71
2023/09/15 09:04:49;;;;;;;58.37;3.60;;;;;;;;;;4952604;28;20457;-71
2023/09/15 09:07:17;;;;;;;56.90;2.83;;;;;;;;;;4952151;28;20475;-72
2023/09/15 09:09:45;;;;;;;57.10;3.00;;;;;;;;;;4952630;28;20475;-71
2023/09/15 09:12:13;;;;;;;57.10;3.07;;;;;;;;;;4952565;28;20456;-72
2023/09/15 09:14:40;;;;;;;57.40;3.00;;;;;;;;;;4954560;28;20555;-72
2023/09/15 09:17:08;;;;;;;57.00;2.77;;;;;;;;;;4948142;28;20818;-72
2023/09/15 09:19:36;;;;;;;57.17;2.57;;;;;;;;;;4956087;28;20444;-70
2023/09/15 09:22:04;;;;;;;57.20;2.63;;;;;;;;;;4955888;28;20949;-71
2023/09/15 09:24:32;;;;;;;57.30;2.90;;;;;;;;;;4955832;28;20496;-71
2023/09/15 09:26:59;;;;;;;57.57;3.43;;;;;;;;;;4955690;28;20480;-72
2023/09/15 09:29:27;;;;;;;57.10;2.70;;;;;;;;;;4955815;28;20448;-71
2023/09/15 09:31:55;;;;;;;57.20;3.00;;;;;;;;;;4955751;28;20515;-72
2023/09/15 09:34:23;;;;;;;56.83;2.50;;;;;;;;;;4955406;28;20445;-71
2023/09/15 09:36:50;;;;;;;57.70;3.23;;;;;;;;;;4955703;28;20519;-71
2023/09/15 09:39:17;;;;;;;56.57;2.20;;;;;;;;;;4955554;28;20469;-71
2023/09/15 09:41:45;;;;;;;56.80;2.90;;;;;;;;;;4955756;28;20457;-72
2023/09/15 09:44:13;;;;;;;56.63;2.60;;;;;;;;;;4955447;28;20492;-72
2023/09/15 09:46:41;;;;;;;56.80;2.43;;;;;;;;;;4955005;28;20469;-71
2023/09/15 09:49:08;;;;;;;57.20;2.77;;;;;;;;;;4955284;28;20456;-70
2023/09/15 09:51:37;;;;;;;57.13;2.63;;;;;;;;;;4955565;28;20457;-72
2023/09/15 09:54:05;;;;;;;57.40;2.87;;;;;;;;;;4955459;28;20449;-72
2023/09/15 09:56:33;;;;;;;56.80;2.40;;;;;;;;;;4952005;28;20472;-72
2023/09/15 09:59:02;;;;;;;56.60;2.37;;;;;;;;;;4950897;29;20504;-72
2023/09/15 10:01:34;;;;;;;56.30;2.23;;;;;;;;;;4956319;28;20468;-72
2023/09/15 10:04:01;;;;;;;56.17;2.33;;;;;;;;;;4957891;28;20496;-72
2023/09/15 10:06:28;;;;;;;57.13;2.40;;;;;;;;;;4958997;28;20508;-71
2023/09/15 10:08:59;;;;;;;56.40;2.10;;;;;;;;;;4956030;28;20459;-72
2023/09/15 10:11:27;;;;;;;56.23;2.50;;;;;;;;;;4956371;28;20461;-72
2023/09/15 10:13:55;;;;;;;56.37;2.30;;;;;;;;;;4956011;28;20453;-72
2023/09/15 10:16:22;;;;;;;55.77;2.23;;;;;;;;;;4956135;28;20468;-72
2023/09/15 10:18:50;;;;;;;55.90;2.17;;;;;;;;;;4963556;28;20481;-71
2023/09/15 10:21:17;;;;;;;55.73;2.10;;;;;;;;;;4971133;28;20512;-71
2023/09/15 10:23:45;;;;;;;56.10;2.10;;;;;;;;;;4972355;28;20473;-72
2023/09/15 10:26:14;;;;;;;55.37;1.90;;;;;;;;;;4966643;28;20457;-72
2023/09/15 10:28:49;;;;;;;55.57;2.17;;;;;;;;;;4968631;28;20460;-71
2023/09/15 10:31:16;;;;;;;55.67;2.23;;;;;;;;;;4969710;28;20452;-73
2023/09/15 10:33:43;;;;;;;55.10;2.03;;;;;;;;;;4967743;28;20484;-73
2023/09/15 10:36:13;;;;;;;55.27;1.90;;;;;;;;;;4968999;28;20475;-73
2023/09/15 10:38:41;;;;;;;55.10;1.97;;;;;;;;;;4971117;28;20461;-74
2023/09/15 10:41:10;;;;;;;55.17;2.10;;;;;;;;;;4971841;28;20464;-74
2023/09/15 10:43:50;;;;;;;55.23;2.67;;;;;;;;;;4971529;28;20453;-74
2023/09/15 10:46:17;;;;;;;55.23;2.07;;;;;;;;;;4971165;28;20520;-74
2023/09/15 10:48:46;;;;;;;55.57;2.23;;;;;;;;;;4970072;28;20452;-73
2023/09/15 10:51:16;;;;;;;54.83;1.90;;;;;;;;;;4971241;28;20452;-73
2023/09/15 10:53:44;;;;;;;55.20;2.13;;;;;;;;;;4972236;28;20492;-74
2023/09/15 10:56:11;;;;;;;54.97;2.30;;;;;;;;;;4974854;28;20453;-74
2023/09/15 10:58:38;;;;;;;55.00;2.60;;;;;;;;;;4975051;28;20457;-72
2023/09/15 11:01:08;;;;;;;54.93;2.17;;;;;;;;;;4976010;28;20437;-73
2023/09/15 11:03:36;;;;;;;55.20;2.17;;;;;;;;;;4976174;28;20509;-71
2023/09/15 11:06:03;;;;;;;55.10;2.10;;;;;;;;;;4973725;28;20461;-74
2023/09/15 11:08:31;;;;;;;54.80;2.63;;;;;;;;;;4964201;28;20459;-74
2023/09/15 11:10:59;;;;;;;54.87;2.03;;;;;;;;;;4962536;28;20460;-74
2023/09/15 11:13:26;;;;;;;55.03;1.97;;;;;;;;;;4960394;28;21000;-73
2023/09/15 11:15:53;;;;;;;54.67;2.10;;;;;;;;;;4960355;28;20453;-74
2023/09/15 11:18:22;;;;;;;55.00;1.97;;;;;;;;;;4959821;28;20831;-73
2023/09/15 11:20:49;;;;;;;55.43;2.43;;;;;;;;;;4959762;28;20460;-72
2023/09/15 11:23:17;;;;;;;55.10;2.10;;;;;;;;;;4959233;28;20459;-73
2023/09/15 11:25:45;;;;;;;55.17;1.87;;;;;;;;;;4958432;28;20465;-73
2023/09/15 11:28:13;;;;;;;55.00;2.00;;;;;;;;;;4958885;28;20563;-72
2023/09/15 11:30:41;;;;;;;55.50;2.50;;;;;;;;;;4958508;28;20453;-73
2023/09/15 11:33:08;;;;;;;54.80;1.80;;;;;;;;;;4957516;28;20448;-73
2023/09/15 11:35:37;;;;;;;55.33;2.23;;;;;;;;;;4958591;28;20461;-74
2023/09/15 11:38:04;;;;;;;55.00;2.00;;;;;;;;;;4956984;28;20509;-74
2023/09/15 11:40:31;;;;;;;54.90;1.87;;;;;;;;;;4957776;28;20828;-73
2023/09/15 11:42:59;;;;;;;55.20;2.07;;;;;;;;;;4957563;28;20551;-72
2023/09/15 11:45:28;;;;;;;55.60;2.27;;;;;;;;;;4948148;28;20450;-72
2023/09/15 11:47:56;;;;;;;55.63;2.20;;;;;;;;;;4937438;29;20477;-73
2023/09/15 11:50:24;;;;;;;55.37;1.83;;;;;;;;;;4937677;29;20449;-74
2023/09/15 11:52:52;;;;;;;54.97;1.80;;;;;;;;;;4937774;29;20454;-74
2023/09/15 11:55:20;;;;;;;55.03;2.07;;;;;;;;;;4936893;29;20492;-73
2023/09/15 11:57:48;;;;;;;54.67;2.03;;;;;;;;;;4935918;29;20521;-73
2023/09/15 12:00:16;;;;;;;55.60;2.37;;;;;;;;;;4934817;29;20454;-72
2023/09/15 12:02:43;;;;;;;55.70;2.13;;;;;;;;;;4934563;29;20553;-73
2023/09/15 12:05:10;;;;;;;55.90;2.00;;;;;;;;;;4934445;29;20518;-73
2023/09/15 12:07:38;;;;;;;54.90;2.10;;;;;;;;;;4952819;29;20480;-74
2023/09/15 12:10:07;;;;;;;54.77;1.73;;;;;;;;;;4953616;28;20457;-72
2023/09/15 12:12:34;;;;;;;55.37;2.20;;;;;;;;;;4953747;28;20457;-73
2023/09/15 12:15:04;;;;;;;55.60;2.30;;;;;;;;;;4954963;28;20488;-73
2023/09/15 12:17:31;;;;;;;55.67;2.03;;;;;;;;;;4953862;28;20555;-73
2023/09/15 12:19:59;;;;;;;55.20;2.10;;;;;;;;;;4946658;28;20466;-73
2023/09/15 12:22:31;;;;;;;55.30;2.00;;;;;;;;;;4950813;29;20457;-72
2023/09/15 12:24:59;;;;;;;55.50;2.03;;;;;;;;;;4953829;28;20449;-73
2023/09/15 12:27:27;;;;;;;54.97;1.80;;;;;;;;;;4953597;28;20528;-73
2023/09/15 12:29:54;;;;;;;55.07;1.90;;;;;;;;;;4938966;28;20461;-72
2023/09/15 12:32:27;;;;;;;54.87;2.10;;;;;;;;;;4935731;29;20552;-74
2023/09/15 12:34:54;;;;;;;55.10;1.83;;;;;;;;;;4949116;28;21050;-74
2023/09/15 12:37:21;;;;;;;55.40;2.03;;;;;;;;;;4933819;29;20571;-72
2023/09/15 12:39:48;;;;;;;55.00;2.00;;;;;;;;;;4943008;28;20458;-74
2023/09/15 12:42:15;;;;;;;55.20;1.80;;;;;;;;;;4934778;29;20832;-74
2023/09/15 12:44:44;;;;;;;55.20;1.97;;;;;;;;;;4942167;28;20454;-73
2023/09/15 12:47:11;;;;;;;55.10;2.00;;;;;;;;;;4941828;29;20476;-74
2023/09/15 12:49:39;;;;;;;55.10;2.10;;;;;;;;;;4946657;28;20457;-74
2023/09/15 12:52:06;;;;;;;55.20;2.20;;;;;;;;;;4943085;28;20458;-74
2023/09/15 12:54:33;;;;;;;54.80;2.03;;;;;;;;;;4953220;29;20495;-74
2023/09/15 12:57:00;;;;;;;55.17;2.33;;;;;;;;;;4937577;29;20480;-74
2023/09/15 12:59:28;;;;;;;55.27;1.83;;;;;;;;;;4954397;29;20801;-73
2023/09/15 13:01:57;;;;;;;55.03;1.93;;;;;;;;;;4956482;28;20455;-75
2023/09/15 13:04:25;;;;;;;55.17;1.87;;;;;;;;;;4940095;28;20453;-74
2023/09/15 13:06:54;;;;;;;54.87;2.20;;;;;;;;;;4951362;28;20475;-71
2023/09/15 13:09:21;;;;;;;55.17;2.23;;;;;;;;;;4937207;29;20954;-73
2023/09/15 13:11:48;;;;;;;54.90;1.87;;;;;;;;;;4948466;28;20464;-73
2023/09/15 13:14:16;;;;;;;57.30;2.30;;;;;;;;;;4940655;28;21009;-74
2023/09/15 13:16:43;;;;;;;55.27;2.10;;;;;;;;;;4936667;29;20481;-71
2023/09/15 13:19:11;;;;;;;55.60;2.00;;;;;;;;;;4937014;29;20460;-72
2023/09/15 13:21:38;;;;;;;54.97;1.50;;;;;;;;;;4936877;29;20459;-72
2023/09/15 13:24:06;;;;;;;55.47;2.13;;;;;;;;;;4937097;29;20457;-73
2023/09/15 13:26:33;;;;;;;55.50;1.80;;;;;;;;;;4936483;29;20845;-72
2023/09/15 13:29:01;;;;;;;55.50;1.87;;;;;;;;;;4938421;29;20556;-72
2023/09/15 13:31:28;;;;;;;55.60;1.80;;;;;;;;;;4937133;29;20460;-72
2023/09/15 13:33:55;;;;;;;55.57;2.13;;;;;;;;;;4937036;29;20449;-72
2023/09/15 13:36:24;;;;;;;55.50;2.40;;;;;;;;;;4937606;29;20800;-73
2023/09/15 13:38:51;;;;;;;55.47;1.90;;;;;;;;;;4949341;29;20537;-73
2023/09/15 13:41:18;;;;;;;54.90;1.87;;;;;;;;;;4956926;28;20453;-73
2023/09/15 13:43:45;;;;;;;55.47;2.00;;;;;;;;;;4956183;28;20463;-73
2023/09/15 13:46:12;;;;;;;55.30;1.80;;;;;;;;;;4955980;28;20455;-74
2023/09/15 13:48:40;;;;;;;54.80;1.80;;;;;;;;;;4946725;28;20823;-73
2023/09/15 13:51:07;;;;;;;55.50;2.40;;;;;;;;;;4936436;29;20450;-74
2023/09/15 13:53:36;;;;;;;55.17;1.90;;;;;;;;;;4936893;29;20480;-73
2023/09/15 13:56:04;;;;;;;55.90;2.70;;;;;;;;;;4936168;29;20513;-71
2023/09/15 13:58:31;;;;;;;55.60;2.10;;;;;;;;;;4936299;29;20465;-72
2023/09/15 14:00:59;;;;;;;55.13;1.97;;;;;;;;;;4936320;29;20782;-74
2023/09/15 14:03:26;;;;;;;55.27;2.00;;;;;;;;;;4936296;29;20549;-74
2023/09/15 14:05:54;;;;;;;55.03;2.27;;;;;;;;;;4936429;29;20446;-75
2023/09/15 14:08:21;;;;;;;55.60;2.40;;;;;;;;;;4936077;29;20457;-72
2023/09/15 14:10:50;;;;;;;54.97;2.13;;;;;;;;;;4936190;29;20450;-73
2023/09/15 14:13:17;;;;;;;55.30;2.07;;;;;;;;;;4935880;29;20454;-73
2023/09/15 14:15:44;;;;;;;56.00;2.30;;;;;;;;;;4954345;29;20492;-72
2023/09/15 14:18:12;;;;;;;55.90;2.67;;;;;;;;;;4954658;28;20473;-73
2023/09/15 14:20:39;;;;;;;55.57;2.10;;;;;;;;;;4945485;28;20849;-74
2023/09/15 14:23:06;;;;;;;55.50;2.00;;;;;;;;;;4943770;29;20460;-72
2023/09/15 14:25:33;;;;;;;55.57;1.93;;;;;;;;;;4939605;29;20449;-73
2023/09/15 14:28:02;;;;;;;55.70;2.20;;;;;;;;;;4948191;29;20480;-72
2023/09/15 14:30:29;;;;;;;56.27;2.40;;;;;;;;;;4954857;28;20511;-72
2023/09/15 14:32:57;;;;;;;55.73;2.33;;;;;;;;;;4954937;28;20508;-73
2023/09/15 14:35:24;;;;;;;55.70;2.10;;;;;;;;;;4954388;28;20489;-72
2023/09/15 14:37:51;;;;;;;56.20;2.40;;;;;;;;;;4941518;29;20476;-73